Pagrindinis puslapis
METAR-TAF:

METAR-TAF

Oro uostai :

Kokomo Municipal Airport

Kokomo, Indiana, Jungtinės Amerikos Valstijos

platuma: 40-32N, ilguma: 086-04W, Aukštis: 253 m

Dabartinis oras

Ataskaita buvo paskelbta 35 minutes, ne 10:56 UTC
Vėjas 6 kt iš Pietryčių
Temperatūra 3°C
Drėgmė 93%
Slėgis 1018 hPa
Matomumas: 16.1 km
Giedras dangus

METAR: KOKK 151056Z AUTO 14006KT 10SM CLR 03/02 A3006 RMK AO2 SLP183 T00280017

Laikas: 07:31 (11:31 UTC)


TAF: trūkstamas

Orai ataskaitas ir orų prognozės (METAR, TAF).

turimą stotys yra geltonos ir raudonos taškus žemėlapyje.

Perkelti pele per norėdami pamatyti stoties vardą.

Tada spustelėkite, norėdami matyti oro stebėjimo ir prognozės.

Norėdami pakeisti žemėlapį: spustelėkite ant žalios mygtukų su juodo kryžiaus žemyn,; žalią mygtuką su brūkšneliu, jei norite nutolinti; arba žalių rodyklių gretimoms žemėlapius.


METAR-TAF: